createdAt,value
2022-09-12T00:01:49.540Z,9.00
2022-09-12T00:04:16.117Z,9.73
2022-09-12T00:06:42.694Z,9.98
2022-09-12T00:09:14.526Z,9.85
2022-09-12T00:11:44.623Z,11.15
2022-09-12T00:14:14.709Z,10.77
2022-09-12T00:16:41.349Z,10.38
2022-09-12T00:19:08.448Z,10.07
2022-09-12T00:21:37.203Z,10.15
2022-09-12T00:24:04.388Z,10.27
2022-09-12T00:26:31.435Z,10.02
2022-09-12T00:28:58.127Z,10.15
2022-09-12T00:31:26.421Z,11.57
2022-09-12T00:33:56.311Z,11.23
2022-09-12T00:36:24.373Z,10.50
2022-09-12T00:38:51.692Z,10.30
2022-09-12T00:41:33.806Z,10.25
2022-09-12T00:44:05.590Z,11.50
2022-09-12T00:46:46.383Z,10.93
2022-09-12T00:49:15.946Z,10.15
2022-09-12T00:51:48.712Z,10.18
2022-09-12T00:54:20.730Z,10.75
2022-09-12T00:56:51.675Z,9.68
2022-09-12T00:59:22.372Z,11.43
2022-09-12T01:01:50.893Z,10.38
2022-09-12T01:04:21.307Z,10.95
2022-09-12T01:06:49.442Z,10.52
2022-09-12T01:09:20.684Z,10.55
2022-09-12T01:11:49.029Z,9.98
2022-09-12T01:14:17.627Z,11.32
2022-09-12T01:16:45.692Z,11.00
2022-09-12T01:19:49.169Z,11.48
2022-09-12T01:22:21.284Z,11.30
2022-09-12T01:25:10.057Z,11.93
2022-09-12T01:27:56.785Z,10.88
2022-09-12T01:30:32.523Z,11.30
2022-09-12T01:33:07.668Z,11.55
2022-09-12T01:35:44.919Z,12.30
2022-09-12T01:38:23.711Z,10.73
2022-09-12T01:41:09.176Z,11.45
2022-09-12T01:43:48.246Z,10.77
2022-09-12T01:46:19.273Z,11.52
2022-09-12T01:48:57.640Z,12.63
2022-09-12T01:51:58.218Z,12.55
2022-09-12T01:54:40.053Z,9.85
2022-09-12T01:57:14.305Z,11.05
2022-09-12T01:59:45.916Z,10.93
2022-09-12T02:02:21.780Z,10.95
2022-09-12T02:05:03.951Z,11.65
2022-09-12T02:07:41.423Z,9.88
2022-09-12T02:10:15.967Z,10.38
2022-09-12T02:12:48.386Z,10.90
2022-09-12T02:15:18.938Z,9.73
2022-09-12T02:17:49.556Z,10.73
2022-09-12T02:20:43.980Z,11.73
2022-09-12T02:23:10.940Z,11.00
2022-09-12T02:25:43.160Z,10.87
2022-09-12T02:28:21.785Z,10.57
2022-09-12T02:31:15.182Z,9.82
2022-09-12T02:34:08.099Z,9.55
2022-09-12T02:37:15.315Z,11.30
2022-09-12T02:39:45.178Z,10.05
2022-09-12T02:42:13.078Z,12.23
2022-09-12T02:44:40.024Z,10.93
2022-09-12T02:47:18.035Z,10.57
2022-09-12T02:49:45.129Z,10.60
2022-09-12T02:52:11.594Z,10.75
2022-09-12T02:54:38.253Z,10.82
2022-09-12T02:57:16.317Z,9.88
2022-09-12T02:59:44.944Z,9.70
2022-09-12T03:02:27.979Z,10.35
2022-09-12T03:05:21.925Z,11.23
2022-09-12T03:08:03.001Z,10.13
2022-09-12T03:10:57.619Z,10.48
2022-09-12T03:13:54.326Z,11.30
2022-09-12T03:16:39.835Z,10.40
2022-09-12T03:19:15.097Z,11.40
2022-09-12T03:21:56.706Z,11.82
2022-09-12T03:24:33.133Z,10.32
2022-09-12T03:27:16.263Z,10.00
2022-09-12T03:29:46.623Z,11.73
2022-09-12T03:32:13.738Z,12.73
2022-09-12T03:34:40.171Z,12.00
2022-09-12T03:37:06.566Z,10.45
2022-09-12T03:39:33.899Z,10.52
2022-09-12T03:42:00.309Z,11.32
2022-09-12T03:44:26.795Z,11.45
2022-09-12T03:46:53.171Z,11.07
2022-09-12T03:49:19.780Z,11.40
2022-09-12T03:51:46.196Z,10.95
2022-09-12T03:54:12.623Z,11.50
2022-09-12T03:56:41.469Z,11.25
2022-09-12T03:59:08.163Z,11.18
2022-09-12T04:01:34.844Z,10.65
2022-09-12T04:04:01.394Z,12.02
2022-09-12T04:06:27.851Z,10.80
2022-09-12T04:08:56.069Z,10.93
2022-09-12T04:11:22.963Z,11.05
2022-09-12T04:13:50.818Z,9.75
2022-09-12T04:16:18.055Z,11.23
2022-09-12T04:18:45.488Z,11.68
2022-09-12T04:21:15.591Z,11.07
2022-09-12T04:23:42.581Z,11.77
2022-09-12T04:26:09.643Z,10.30
2022-09-12T04:28:37.982Z,10.75
2022-09-12T04:31:12.162Z,10.68
2022-09-12T04:33:39.215Z,10.43
2022-09-12T04:36:08.057Z,10.40
2022-09-12T04:38:35.513Z,9.63
2022-09-12T04:41:10.842Z,9.85
2022-09-12T04:43:37.238Z,10.38
2022-09-12T04:46:08.096Z,11.00
2022-09-12T04:48:34.678Z,9.15
2022-09-12T04:51:18.582Z,8.88
2022-09-12T04:53:49.505Z,9.25
2022-09-12T04:56:16.659Z,9.80
2022-09-12T04:58:43.224Z,10.23
2022-09-12T05:01:17.260Z,9.63
2022-09-12T05:03:44.936Z,10.52
2022-09-12T05:06:14.448Z,10.70
2022-09-12T05:08:41.208Z,10.50
2022-09-12T05:11:13.266Z,10.30
2022-09-12T05:13:40.024Z,9.93
2022-09-12T05:16:07.638Z,9.75
2022-09-12T05:18:35.673Z,10.73
2022-09-12T05:21:04.817Z,10.05
2022-09-12T05:23:31.750Z,10.40
2022-09-12T05:25:59.711Z,10.23
2022-09-12T05:28:30.980Z,9.70
2022-09-12T05:31:33.023Z,9.85
2022-09-12T05:33:59.609Z,10.90
2022-09-12T05:36:29.156Z,11.52
2022-09-12T05:38:56.248Z,10.32
2022-09-12T05:41:25.704Z,10.40
2022-09-12T05:43:54.550Z,10.43
2022-09-12T05:46:23.054Z,11.52
2022-09-12T05:48:55.086Z,10.75
2022-09-12T05:51:28.339Z,11.68
2022-09-12T05:54:01.079Z,12.23
2022-09-12T05:56:30.087Z,10.55
2022-09-12T05:58:59.426Z,11.65
2022-09-12T06:01:27.457Z,11.48
2022-09-12T06:03:56.397Z,11.13
2022-09-12T06:06:24.800Z,11.80
2022-09-12T06:08:54.608Z,11.45
2022-09-12T06:11:23.023Z,12.55
2022-09-12T06:13:50.308Z,10.88
2022-09-12T06:16:22.390Z,12.63
2022-09-12T06:18:50.757Z,12.07
2022-09-12T06:21:17.823Z,11.77
2022-09-12T06:23:46.086Z,11.70
2022-09-12T06:26:13.814Z,12.73
2022-09-12T06:28:41.907Z,13.05
2022-09-12T06:31:09.735Z,11.77
2022-09-12T06:33:38.928Z,12.18
2022-09-12T06:36:12.074Z,11.98
2022-09-12T06:38:39.919Z,11.93
2022-09-12T06:41:08.518Z,12.05
2022-09-12T06:43:35.465Z,11.38
2022-09-12T06:46:02.325Z,12.23
2022-09-12T06:48:29.323Z,11.77
2022-09-12T06:51:00.838Z,11.52
2022-09-12T06:53:28.545Z,13.13
2022-09-12T06:56:02.878Z,12.30
2022-09-12T06:58:30.002Z,12.75
2022-09-12T07:01:11.198Z,12.18
2022-09-12T07:03:38.643Z,11.85
2022-09-12T07:06:13.418Z,12.23
2022-09-12T07:08:40.886Z,12.43
2022-09-12T07:11:21.686Z,11.75
2022-09-12T07:13:50.613Z,11.55
2022-09-12T07:16:19.913Z,11.48
2022-09-12T07:18:51.666Z,12.02
2022-09-12T07:21:18.098Z,11.75
2022-09-12T07:23:45.370Z,11.18
2022-09-12T07:26:13.106Z,10.90
2022-09-12T07:28:39.976Z,9.85
2022-09-12T07:31:26.397Z,10.38
2022-09-12T07:33:54.828Z,10.45
2022-09-12T07:36:24.541Z,10.82
2022-09-12T07:38:57.867Z,10.20
2022-09-12T07:41:33.824Z,10.50
2022-09-12T07:44:02.073Z,11.27
2022-09-12T07:46:30.053Z,10.73
2022-09-12T07:48:57.924Z,10.52
2022-09-12T07:51:25.820Z,10.35
2022-09-12T07:53:52.309Z,9.68
2022-09-12T07:56:19.980Z,10.10
2022-09-12T07:58:46.899Z,10.93
2022-09-12T08:01:19.238Z,11.10
2022-09-12T08:03:48.139Z,10.10
2022-09-12T08:06:16.922Z,9.90
2022-09-12T08:08:43.373Z,9.55
2022-09-12T08:11:12.825Z,11.13
2022-09-12T08:13:41.061Z,10.15
2022-09-12T08:16:11.966Z,10.20
2022-09-12T08:18:39.093Z,10.85
2022-09-12T08:21:08.193Z,12.15
2022-09-12T08:23:34.566Z,9.57
2022-09-12T08:26:06.314Z,10.38
2022-09-12T08:28:35.425Z,12.07
2022-09-12T08:31:04.257Z,10.70
2022-09-12T08:33:33.386Z,10.85
2022-09-12T08:36:10.106Z,9.73
2022-09-12T08:38:37.949Z,10.88
2022-09-12T08:41:11.449Z,11.02
2022-09-12T08:44:09.218Z,11.40
2022-09-12T08:47:09.499Z,10.52
2022-09-12T08:49:42.127Z,9.80
2022-09-12T08:52:25.840Z,11.10
2022-09-12T08:54:52.548Z,11.25
2022-09-12T08:57:19.002Z,11.35
2022-09-12T08:59:46.259Z,9.95
2022-09-12T09:02:46.843Z,11.25
2022-09-12T09:05:40.421Z,10.35
2022-09-12T09:10:49.759Z,10.07
2022-09-12T09:14:13.999Z,10.00
2022-09-12T09:19:24.111Z,10.05
2022-09-12T09:21:58.840Z,9.45
2022-09-12T09:24:36.616Z,10.40
2022-09-12T09:27:29.919Z,9.13
2022-09-12T09:32:30.886Z,10.38
2022-09-12T09:34:57.306Z,9.57
2022-09-12T09:37:58.784Z,11.07
2022-09-12T09:40:32.446Z,10.50
2022-09-12T09:43:18.254Z,10.18
2022-09-12T09:45:47.383Z,10.32
2022-09-12T09:48:34.217Z,9.05
2022-09-12T09:51:02.897Z,10.35
2022-09-12T09:53:39.939Z,10.00
2022-09-12T09:56:14.589Z,8.35
2022-09-12T09:58:41.435Z,9.50
2022-09-12T10:01:27.479Z,10.45
2022-09-12T10:03:55.715Z,8.38
2022-09-12T10:06:34.160Z,9.43
2022-09-12T10:09:07.217Z,9.80
2022-09-12T10:11:33.660Z,8.60
2022-09-12T10:14:01.252Z,8.55
2022-09-12T10:16:48.360Z,7.53
2022-09-12T10:19:24.554Z,9.75
2022-09-12T10:21:54.377Z,8.82
2022-09-12T10:24:36.670Z,9.27
2022-09-12T10:27:12.427Z,9.30
2022-09-12T10:29:48.377Z,10.75
2022-09-12T10:32:28.610Z,8.90
2022-09-12T10:35:03.355Z,8.38
2022-09-12T10:37:35.951Z,9.10
2022-09-12T10:40:05.414Z,7.82
2022-09-12T10:42:42.634Z,8.05
2022-09-12T10:45:38.731Z,8.48
2022-09-12T10:48:29.270Z,8.52
2022-09-12T10:50:59.490Z,7.95
2022-09-12T10:53:43.116Z,8.85
2022-09-12T10:56:13.767Z,7.93
2022-09-12T10:58:54.630Z,7.32
2022-09-12T11:01:38.743Z,7.20
2022-09-12T11:04:42.741Z,8.75
2022-09-12T11:07:29.607Z,8.18
2022-09-12T11:10:39.570Z,7.85
2022-09-12T11:13:29.212Z,7.53
2022-09-12T11:16:25.261Z,6.93
2022-09-12T11:19:22.774Z,7.05
2022-09-12T11:22:17.529Z,6.70
2022-09-12T11:25:02.698Z,6.30
2022-09-12T11:27:32.110Z,7.25
2022-09-12T11:30:03.842Z,6.72
2022-09-12T11:32:42.756Z,7.07
2022-09-12T11:35:11.084Z,5.97
2022-09-12T11:38:00.318Z,5.90
2022-09-12T11:40:55.729Z,6.75
2022-09-12T11:43:35.899Z,6.22
2022-09-12T11:46:23.753Z,6.80
2022-09-12T11:48:59.237Z,6.68
2022-09-12T11:51:33.054Z,5.78
2022-09-12T11:54:05.729Z,5.85
2022-09-12T11:56:35.714Z,5.90
2022-09-12T11:59:11.263Z,6.70
2022-09-12T12:01:48.334Z,5.82
2022-09-12T12:04:20.502Z,5.35
2022-09-12T12:06:49.964Z,5.82
2022-09-12T12:09:16.746Z,5.70
2022-09-12T12:11:48.697Z,5.57
2022-09-12T12:14:23.903Z,5.40
2022-09-12T12:16:50.829Z,5.93
2022-09-12T12:19:17.185Z,6.70
2022-09-12T12:21:49.898Z,5.93
2022-09-12T12:24:23.348Z,5.38
2022-09-12T12:27:05.017Z,5.30
2022-09-12T12:29:31.361Z,5.07
2022-09-12T12:32:07.675Z,5.13
2022-09-12T12:34:42.019Z,5.05
2022-09-12T12:37:25.347Z,5.18
2022-09-12T12:40:01.041Z,5.32
2022-09-12T12:42:34.091Z,4.68
2022-09-12T12:45:09.433Z,5.28
2022-09-12T12:47:35.757Z,4.32
2022-09-12T12:50:08.369Z,3.97
2022-09-12T12:53:00.835Z,4.03
2022-09-12T12:55:42.496Z,3.87
2022-09-12T12:58:38.650Z,4.55
2022-09-12T13:01:04.958Z,4.50
2022-09-12T13:03:34.027Z,3.70
2022-09-12T13:06:03.205Z,4.72
2022-09-12T13:08:32.795Z,4.50
2022-09-12T13:11:04.685Z,4.60
2022-09-12T13:13:37.981Z,4.35
2022-09-12T13:16:04.866Z,3.75
2022-09-12T13:19:01.363Z,4.47
2022-09-12T13:21:27.985Z,4.40
2022-09-12T13:24:06.189Z,4.55
2022-09-12T13:26:35.903Z,4.32
2022-09-12T13:29:18.621Z,4.53
2022-09-12T13:32:03.470Z,3.58
2022-09-12T13:34:35.491Z,4.10
2022-09-12T13:37:19.161Z,3.77
2022-09-12T13:39:47.717Z,3.90
2022-09-12T13:42:36.175Z,3.97
2022-09-12T13:45:07.654Z,3.83
2022-09-12T13:47:41.933Z,4.38
2022-09-12T13:50:14.247Z,3.67
2022-09-12T13:52:40.683Z,3.80
2022-09-12T13:55:34.257Z,4.10
2022-09-12T13:58:16.534Z,3.55
2022-09-12T14:00:43.072Z,3.60
2022-09-12T14:03:48.178Z,3.80
2022-09-12T14:06:18.151Z,3.78
2022-09-12T14:08:47.089Z,3.90
2022-09-12T14:11:28.453Z,3.25
2022-09-12T14:13:55.790Z,3.65
2022-09-12T14:16:23.817Z,3.70
2022-09-12T14:18:51.774Z,3.35
2022-09-12T14:21:34.050Z,3.40
2022-09-12T14:24:02.414Z,4.27
2022-09-12T14:26:33.318Z,3.65
2022-09-12T14:29:01.154Z,4.00
2022-09-12T14:31:34.087Z,3.55
2022-09-12T14:36:51.417Z,3.72
2022-09-12T14:39:23.345Z,3.85
2022-09-12T14:41:51.473Z,3.60
2022-09-12T14:44:24.571Z,3.40
2022-09-12T14:46:51.899Z,3.60
2022-09-12T14:49:36.530Z,3.60
2022-09-12T14:52:05.872Z,3.78
2022-09-12T14:54:33.700Z,3.95
2022-09-12T14:57:04.085Z,3.83
2022-09-12T14:59:33.465Z,3.92
2022-09-12T15:02:20.967Z,3.72
2022-09-12T15:04:52.650Z,3.50
2022-09-12T15:07:36.169Z,3.85
2022-09-12T15:10:04.652Z,4.20
2022-09-12T15:12:31.369Z,3.67
2022-09-12T15:15:12.942Z,4.43
2022-09-12T15:17:39.340Z,3.97
2022-09-12T15:20:06.485Z,3.95
2022-09-12T15:22:34.461Z,3.60
2022-09-12T15:25:00.927Z,3.60
2022-09-12T15:27:27.311Z,3.85
2022-09-12T15:29:54.153Z,3.53
2022-09-12T15:32:25.462Z,3.60
2022-09-12T15:34:52.758Z,3.63
2022-09-12T15:37:20.702Z,5.57
2022-09-12T15:39:47.884Z,4.10
2022-09-12T15:42:16.850Z,3.95
2022-09-12T15:44:43.437Z,4.18
2022-09-12T15:47:13.564Z,3.75
2022-09-12T15:49:40.736Z,3.80
2022-09-12T15:52:11.487Z,3.58
2022-09-12T15:54:37.832Z,3.30
2022-09-12T15:57:04.323Z,4.53
2022-09-12T15:59:31.046Z,4.35
2022-09-12T16:01:58.189Z,4.25
2022-09-12T16:04:27.561Z,3.97
2022-09-12T16:06:55.654Z,4.63
2022-09-12T16:09:23.200Z,4.13
2022-09-12T16:11:50.189Z,4.22
2022-09-12T16:14:18.598Z,3.55
2022-09-12T16:16:51.531Z,3.53
2022-09-12T16:21:44.776Z,4.00
2022-09-12T16:24:11.463Z,3.58
2022-09-12T16:26:37.889Z,3.95
2022-09-12T16:29:04.323Z,4.03
2022-09-12T16:31:30.890Z,3.85
2022-09-12T16:33:57.313Z,3.88
2022-09-12T16:36:24.364Z,3.55
2022-09-12T16:38:53.268Z,3.17
2022-09-12T16:41:24.989Z,3.72
2022-09-12T16:43:51.781Z,3.20
2022-09-12T16:46:21.229Z,3.78
2022-09-12T16:48:52.497Z,3.90
2022-09-12T16:51:22.770Z,3.67
2022-09-12T16:53:49.886Z,3.78
2022-09-12T16:56:16.799Z,3.80
2022-09-12T16:58:43.568Z,5.53
2022-09-12T17:01:19.196Z,7.63
2022-09-12T17:03:45.961Z,5.13
2022-09-12T17:06:18.140Z,4.55
2022-09-12T17:08:47.570Z,4.15
2022-09-12T17:11:17.136Z,3.80
2022-09-12T17:14:07.508Z,3.13
2022-09-12T17:16:36.806Z,4.35
2022-09-12T17:19:04.801Z,3.30
2022-09-12T17:21:32.133Z,3.83
2022-09-12T17:23:59.203Z,3.05
2022-09-12T17:26:26.622Z,3.38
2022-09-12T17:28:53.287Z,3.55
2022-09-12T17:31:19.905Z,3.08
2022-09-12T17:33:46.867Z,3.17
2022-09-12T17:36:16.404Z,3.42
2022-09-12T17:38:44.705Z,3.83
2022-09-12T17:41:15.873Z,4.35
2022-09-12T17:43:42.365Z,3.97
2022-09-12T17:46:08.837Z,3.72
2022-09-12T17:48:35.921Z,3.50
2022-09-12T17:51:10.071Z,5.57
2022-09-12T17:53:37.159Z,5.85
2022-09-12T17:56:04.735Z,5.03
2022-09-12T17:58:32.342Z,3.80
2022-09-12T18:01:22.825Z,3.72
2022-09-12T18:03:49.469Z,4.00
2022-09-12T18:06:15.954Z,3.80
2022-09-12T18:08:42.372Z,4.10
2022-09-12T18:11:08.833Z,4.28
2022-09-12T18:13:35.428Z,4.38
2022-09-12T18:16:08.339Z,4.40
2022-09-12T18:18:36.011Z,4.10
2022-09-12T18:21:05.310Z,3.45
2022-09-12T18:23:32.500Z,3.83
2022-09-12T18:26:00.705Z,3.92
2022-09-12T18:28:28.105Z,4.57
2022-09-12T18:30:54.507Z,3.85
2022-09-12T18:33:24.082Z,4.63
2022-09-12T18:35:51.678Z,3.80
2022-09-12T18:38:18.435Z,3.88
2022-09-12T18:40:45.322Z,4.72
2022-09-12T18:43:15.374Z,4.05
2022-09-12T18:45:47.515Z,4.30
2022-09-12T18:48:14.601Z,4.40
2022-09-12T18:50:41.404Z,4.75
2022-09-12T18:53:10.281Z,4.15
2022-09-12T18:55:36.975Z,4.15
2022-09-12T18:58:03.474Z,5.05
2022-09-12T19:00:29.974Z,4.68
2022-09-12T19:02:56.366Z,4.20
2022-09-12T19:05:22.912Z,4.85
2022-09-12T19:07:49.272Z,5.47
2022-09-12T19:10:15.861Z,4.18
2022-09-12T19:12:43.055Z,4.65
2022-09-12T19:15:10.070Z,4.57
2022-09-12T19:17:36.697Z,4.70
2022-09-12T19:20:04.501Z,4.85
2022-09-12T19:22:30.888Z,5.00
2022-09-12T19:24:57.358Z,5.13
2022-09-12T19:27:23.791Z,5.03
2022-09-12T19:29:50.199Z,4.95
2022-09-12T19:32:16.765Z,5.50
2022-09-12T19:34:43.240Z,5.05
2022-09-12T19:37:09.596Z,4.95
2022-09-12T19:39:36.015Z,4.95
2022-09-12T19:42:02.455Z,5.63
2022-09-12T19:44:30.176Z,4.88
2022-09-12T19:46:56.522Z,4.00
2022-09-12T19:49:23.213Z,4.88
2022-09-12T19:51:49.615Z,5.40
2022-09-12T19:54:16.028Z,4.88
2022-09-12T19:56:42.430Z,5.40
2022-09-12T19:59:08.908Z,4.93
2022-09-12T20:01:37.072Z,5.00
2022-09-12T20:04:04.256Z,4.70
2022-09-12T20:06:30.683Z,4.20
2022-09-12T20:08:58.516Z,4.90
2022-09-12T20:11:25.667Z,4.45
2022-09-12T20:13:52.553Z,3.85
2022-09-12T20:16:28.791Z,3.80
2022-09-12T20:18:58.801Z,4.43
2022-09-12T20:21:31.392Z,4.65
2022-09-12T20:24:05.952Z,4.40
2022-09-12T20:26:32.964Z,4.50
2022-09-12T20:29:02.153Z,4.88
2022-09-12T20:31:31.839Z,4.32
2022-09-12T20:33:58.924Z,4.20
2022-09-12T20:36:25.881Z,4.93
2022-09-12T20:38:56.457Z,4.55
2022-09-12T20:41:24.577Z,4.93
2022-09-12T20:43:55.662Z,4.53
2022-09-12T20:46:24.477Z,5.05
2022-09-12T20:48:54.608Z,5.40
2022-09-12T20:51:21.993Z,4.93
2022-09-12T20:53:52.169Z,5.18
2022-09-12T20:56:18.559Z,5.32
2022-09-12T20:58:45.007Z,4.22
2022-09-12T21:01:13.606Z,5.13
2022-09-12T21:03:42.092Z,4.55
2022-09-12T21:06:09.918Z,4.90
2022-09-12T21:08:37.143Z,5.10
2022-09-12T21:11:04.379Z,5.22
2022-09-12T21:13:31.507Z,4.95
2022-09-12T21:16:07.518Z,5.38
2022-09-12T21:18:35.254Z,4.70
2022-09-12T21:21:02.490Z,4.30
2022-09-12T21:23:29.173Z,4.95
2022-09-12T21:25:55.679Z,4.00
2022-09-12T21:28:22.793Z,5.10
2022-09-12T21:30:51.423Z,5.00
2022-09-12T21:33:20.469Z,4.28
2022-09-12T21:35:47.877Z,4.60
2022-09-12T21:38:15.536Z,4.60
2022-09-12T21:40:42.070Z,5.07
2022-09-12T21:43:12.578Z,4.28
2022-09-12T21:45:40.525Z,4.75
2022-09-12T21:48:09.453Z,4.45
2022-09-12T21:50:38.917Z,4.32
2022-09-12T21:53:05.325Z,4.30
2022-09-12T21:55:31.730Z,4.90
2022-09-12T21:58:00.477Z,4.88
2022-09-12T22:00:26.983Z,4.43
2022-09-12T22:02:53.674Z,4.70
2022-09-12T22:05:21.183Z,5.40
2022-09-12T22:07:47.652Z,5.10
2022-09-12T22:10:15.972Z,4.93
2022-09-12T22:12:46.062Z,5.60
2022-09-12T22:15:38.947Z,5.20
2022-09-12T22:17:59.953Z,4.60
2022-09-12T22:20:26.536Z,4.53
2022-09-12T22:23:11.908Z,4.82
2022-09-12T22:25:39.466Z,5.18
2022-09-12T22:28:05.951Z,5.65
2022-09-12T22:30:32.317Z,5.53
2022-09-12T22:32:58.709Z,5.65
2022-09-12T22:35:25.388Z,5.53
2022-09-12T22:37:51.933Z,5.15
2022-09-12T22:40:18.340Z,5.45
2022-09-12T22:42:44.735Z,5.75
2022-09-12T22:45:11.448Z,5.28
2022-09-12T22:47:38.552Z,5.55
2022-09-12T22:50:08.861Z,5.47
2022-09-12T22:52:35.244Z,5.53
2022-09-12T22:55:02.092Z,5.70
2022-09-12T22:57:28.555Z,5.15
2022-09-12T22:59:54.946Z,5.97
2022-09-12T23:02:21.403Z,5.32
2022-09-12T23:04:48.485Z,5.72
2022-09-12T23:07:15.316Z,6.28
2022-09-12T23:09:41.987Z,6.05
2022-09-12T23:12:08.439Z,6.78
2022-09-12T23:14:34.808Z,6.22
2022-09-12T23:17:01.456Z,6.53
2022-09-12T23:19:27.876Z,6.72
2022-09-12T23:21:54.427Z,5.70
2022-09-12T23:24:20.862Z,5.85
2022-09-12T23:26:47.694Z,5.72
2022-09-12T23:29:14.114Z,6.13
2022-09-12T23:31:40.565Z,6.40
2022-09-12T23:34:07.012Z,6.28
2022-09-12T23:36:33.529Z,5.50
2022-09-12T23:39:00.221Z,5.70
2022-09-12T23:41:26.741Z,5.72
2022-09-12T23:43:53.605Z,6.00
2022-09-12T23:46:21.143Z,6.78
2022-09-12T23:48:47.747Z,5.40
2022-09-12T23:51:14.344Z,5.90
2022-09-12T23:53:41.571Z,5.82
2022-09-12T23:56:08.379Z,5.53
2022-09-12T23:58:34.815Z,5.95
